createdAt,value
2022-09-16T00:02:18.908Z,19.49
2022-09-16T00:04:51.106Z,19.51
2022-09-16T00:07:23.119Z,19.48
2022-09-16T00:09:55.301Z,19.50
2022-09-16T00:12:27.346Z,19.48
2022-09-16T00:14:59.418Z,19.52
2022-09-16T00:17:31.774Z,19.56
2022-09-16T00:20:04.429Z,19.57
2022-09-16T00:22:37.583Z,19.57
2022-09-16T00:25:12.942Z,19.52
2022-09-16T00:27:48.569Z,19.49
2022-09-16T00:30:22.026Z,19.46
2022-09-16T00:32:57.534Z,19.47
2022-09-16T00:35:30.216Z,19.47
2022-09-16T00:38:03.817Z,19.46
2022-09-16T00:40:44.946Z,19.44
2022-09-16T00:43:21.410Z,19.40
2022-09-16T00:46:01.962Z,19.43
2022-09-16T00:48:37.714Z,19.45
2022-09-16T00:51:13.341Z,19.38
2022-09-16T00:53:54.397Z,19.39
2022-09-16T00:56:29.655Z,19.39
2022-09-16T00:59:09.287Z,19.43
2022-09-16T01:01:45.556Z,19.45
2022-09-16T01:04:21.441Z,19.46
2022-09-16T01:06:55.554Z,19.43
2022-09-16T01:09:29.338Z,19.41
2022-09-16T01:12:03.163Z,19.38
2022-09-16T01:14:53.120Z,19.37
2022-09-16T01:17:31.489Z,19.39
2022-09-16T01:20:29.328Z,19.40
2022-09-16T01:23:20.351Z,19.38
2022-09-16T01:26:06.146Z,19.35
2022-09-16T01:29:11.269Z,19.34
2022-09-16T01:31:47.129Z,19.29
2022-09-16T01:34:30.219Z,19.27
2022-09-16T01:37:07.929Z,19.25
2022-09-16T01:39:45.689Z,19.24
2022-09-16T01:42:28.365Z,19.23
2022-09-16T01:45:05.688Z,19.20
2022-09-16T01:47:41.273Z,19.23
2022-09-16T01:50:19.479Z,19.24
2022-09-16T01:53:03.975Z,19.24
2022-09-16T01:55:42.563Z,19.21
2022-09-16T01:58:18.866Z,19.23
2022-09-16T02:00:52.005Z,19.19
2022-09-16T02:03:28.347Z,19.15
2022-09-16T02:06:05.744Z,19.12
2022-09-16T02:08:42.025Z,19.00
2022-09-16T02:11:18.205Z,18.93
2022-09-16T02:13:55.394Z,18.88
2022-09-16T02:16:29.968Z,18.83
2022-09-16T02:19:03.825Z,18.79
2022-09-16T02:21:45.420Z,18.74
2022-09-16T02:24:21.217Z,18.71
2022-09-16T02:27:00.929Z,18.68
2022-09-16T02:29:44.263Z,18.61
2022-09-16T02:32:17.376Z,18.54
2022-09-16T02:34:50.605Z,18.52
2022-09-16T02:37:26.394Z,18.49
2022-09-16T02:40:02.331Z,18.46
2022-09-16T02:42:35.464Z,18.45
2022-09-16T02:45:11.280Z,18.48
2022-09-16T02:47:48.625Z,18.50
2022-09-16T02:50:27.291Z,18.51
2022-09-16T02:53:02.608Z,18.49
2022-09-16T02:55:40.949Z,18.50
2022-09-16T02:58:15.144Z,18.52
2022-09-16T03:00:49.683Z,18.49
2022-09-16T03:03:24.471Z,18.48
2022-09-16T03:06:18.547Z,18.47
2022-09-16T03:08:51.743Z,18.49
2022-09-16T03:11:48.107Z,18.42
2022-09-16T03:14:38.934Z,18.35
2022-09-16T03:17:22.062Z,18.29
2022-09-16T03:20:07.334Z,18.21
2022-09-16T03:22:50.359Z,18.17
2022-09-16T03:25:29.752Z,18.17
2022-09-16T03:28:09.255Z,18.13
2022-09-16T03:30:48.721Z,18.12
2022-09-16T03:33:28.380Z,18.10
2022-09-16T03:36:02.368Z,18.06
2022-09-16T03:38:36.881Z,18.02
2022-09-16T03:41:11.016Z,18.01
2022-09-16T03:43:44.045Z,17.96
2022-09-16T03:46:18.280Z,17.94
2022-09-16T03:48:52.459Z,17.98
2022-09-16T03:51:26.112Z,17.94
2022-09-16T03:53:58.644Z,17.89
2022-09-16T03:56:32.344Z,17.85
2022-09-16T03:59:04.842Z,17.84
2022-09-16T04:01:38.488Z,17.79
2022-09-16T04:04:13.430Z,17.75
2022-09-16T04:06:48.216Z,17.72
2022-09-16T04:09:23.013Z,17.65
2022-09-16T04:11:58.663Z,17.64
2022-09-16T04:14:31.248Z,17.63
2022-09-16T04:17:04.271Z,17.59
2022-09-16T04:19:36.306Z,17.59
2022-09-16T04:22:09.718Z,17.55
2022-09-16T04:24:42.609Z,17.57
2022-09-16T04:27:16.802Z,17.55
2022-09-16T04:29:49.264Z,17.55
2022-09-16T04:32:23.071Z,17.53
2022-09-16T04:35:01.279Z,17.58
2022-09-16T04:37:34.424Z,17.62
2022-09-16T04:40:09.551Z,17.61
2022-09-16T04:42:41.828Z,17.68
2022-09-16T04:45:14.675Z,17.75
2022-09-16T04:47:47.676Z,17.83
2022-09-16T04:50:20.081Z,17.93
2022-09-16T04:52:56.194Z,18.01
2022-09-16T04:55:30.196Z,18.12
2022-09-16T04:58:07.141Z,18.25
2022-09-16T05:00:43.327Z,18.38
2022-09-16T05:03:16.134Z,18.50
2022-09-16T05:05:49.651Z,18.62
2022-09-16T05:08:25.883Z,18.66
2022-09-16T05:11:03.316Z,18.74
2022-09-16T05:13:37.012Z,18.76
2022-09-16T05:16:12.180Z,18.81
2022-09-16T05:18:47.546Z,18.87
2022-09-16T05:21:21.196Z,18.88
2022-09-16T05:23:57.848Z,18.92
2022-09-16T05:26:32.849Z,18.92
2022-09-16T05:29:12.244Z,18.97
2022-09-16T05:31:47.576Z,19.02
2022-09-16T05:34:23.328Z,19.04
2022-09-16T05:36:57.249Z,19.07
2022-09-16T05:39:29.687Z,19.18
2022-09-16T05:42:05.968Z,19.29
2022-09-16T05:44:40.815Z,19.45
2022-09-16T05:47:17.025Z,19.54
2022-09-16T05:49:54.980Z,19.65
2022-09-16T05:52:30.190Z,19.73
2022-09-16T05:55:04.681Z,19.85
2022-09-16T05:57:38.037Z,19.97
2022-09-16T06:00:12.775Z,20.09
2022-09-16T06:02:47.555Z,20.18
2022-09-16T06:05:23.467Z,20.25
2022-09-16T06:07:59.790Z,20.24
2022-09-16T06:10:32.125Z,20.28
2022-09-16T06:13:05.328Z,20.39
2022-09-16T06:15:39.526Z,20.53
2022-09-16T06:18:16.034Z,20.69
2022-09-16T06:20:51.271Z,20.85
2022-09-16T06:23:25.771Z,20.99
2022-09-16T06:26:07.709Z,21.12
2022-09-16T06:28:41.009Z,21.17
2022-09-16T06:31:17.033Z,21.20
2022-09-16T06:33:52.682Z,21.21
2022-09-16T06:36:27.998Z,21.17
2022-09-16T06:39:00.702Z,21.18
2022-09-16T06:41:34.689Z,21.05
2022-09-16T06:44:07.146Z,20.86
2022-09-16T06:46:42.784Z,20.75
2022-09-16T06:49:14.918Z,20.66
2022-09-16T06:51:48.254Z,20.63
2022-09-16T06:54:21.199Z,20.74
2022-09-16T06:56:54.903Z,20.86
2022-09-16T06:59:29.161Z,20.95
2022-09-16T07:02:02.658Z,21.00
2022-09-16T07:04:35.617Z,20.95
2022-09-16T07:07:10.876Z,20.94
2022-09-16T07:09:43.165Z,20.94
2022-09-16T07:12:19.755Z,20.97
2022-09-16T07:14:53.192Z,20.96
2022-09-16T07:17:27.326Z,21.02
2022-09-16T07:19:59.156Z,21.07
2022-09-16T07:22:34.847Z,21.18
2022-09-16T07:25:09.015Z,21.19
2022-09-16T07:27:41.338Z,21.30
2022-09-16T07:30:15.703Z,21.37
2022-09-16T07:32:47.696Z,21.44
2022-09-16T07:35:22.010Z,21.63
2022-09-16T07:37:54.066Z,21.78
2022-09-16T07:40:29.767Z,21.82
2022-09-16T07:43:01.831Z,21.76
2022-09-16T07:45:34.441Z,21.67
2022-09-16T07:48:07.989Z,21.54
2022-09-16T07:50:41.679Z,21.47
2022-09-16T07:53:13.960Z,21.42
2022-09-16T07:55:47.108Z,21.31
2022-09-16T07:58:20.752Z,21.10
2022-09-16T08:00:53.321Z,20.97
2022-09-16T08:03:25.473Z,20.87
2022-09-16T08:06:02.699Z,20.83
2022-09-16T08:08:35.290Z,20.80
2022-09-16T08:11:09.794Z,20.73
2022-09-16T08:13:42.223Z,20.79
2022-09-16T08:16:16.022Z,20.91
2022-09-16T08:18:49.726Z,20.93
2022-09-16T08:21:25.115Z,20.93
2022-09-16T08:23:57.589Z,20.93
2022-09-16T08:26:31.316Z,20.98
2022-09-16T08:29:08.813Z,21.24
2022-09-16T08:31:42.562Z,21.59
2022-09-16T08:34:16.474Z,21.96
2022-09-16T08:36:48.279Z,22.07
2022-09-16T08:39:22.407Z,22.26
2022-09-16T08:42:33.442Z,22.44
2022-09-16T08:45:16.490Z,22.49
2022-09-16T08:48:01.362Z,22.48
2022-09-16T08:50:37.465Z,22.40
2022-09-16T08:53:16.642Z,22.38
2022-09-16T08:55:50.793Z,22.38
2022-09-16T08:58:26.697Z,22.49
2022-09-16T09:01:02.769Z,22.56
2022-09-16T09:03:38.837Z,22.71
2022-09-16T09:06:19.896Z,22.85
2022-09-16T09:09:04.291Z,23.03
2022-09-16T09:11:42.090Z,23.26
2022-09-16T09:14:29.607Z,23.37
2022-09-16T09:17:08.850Z,23.41
2022-09-16T09:19:51.859Z,23.34
2022-09-16T09:22:45.572Z,23.11
2022-09-16T09:25:36.312Z,22.93
2022-09-16T09:28:21.442Z,22.89
2022-09-16T09:31:00.799Z,22.92
2022-09-16T09:33:46.536Z,22.93
2022-09-16T09:36:40.945Z,22.96
2022-09-16T09:39:38.386Z,22.86
2022-09-16T09:42:15.733Z,22.84
2022-09-16T09:45:03.184Z,22.81
2022-09-16T09:47:40.753Z,22.88
2022-09-16T09:50:19.220Z,23.04
2022-09-16T09:52:57.579Z,23.21
2022-09-16T09:55:33.066Z,23.36
2022-09-16T09:58:21.266Z,23.54
2022-09-16T10:00:56.375Z,23.61
2022-09-16T10:03:30.979Z,23.80
2022-09-16T10:06:04.440Z,24.17
2022-09-16T10:08:42.875Z,24.56
2022-09-16T10:11:21.821Z,24.78
2022-09-16T10:13:55.922Z,24.95
2022-09-16T10:16:32.458Z,25.18
2022-09-16T10:19:10.501Z,25.26
2022-09-16T10:21:48.698Z,25.16
2022-09-16T10:24:42.307Z,25.04
2022-09-16T10:27:27.291Z,24.96
2022-09-16T10:30:15.429Z,24.77
2022-09-16T10:32:56.411Z,24.46
2022-09-16T10:35:30.486Z,24.06
2022-09-16T10:38:08.089Z,23.84
2022-09-16T10:40:41.274Z,23.74
2022-09-16T10:43:18.778Z,23.69
2022-09-16T10:45:53.041Z,23.62
2022-09-16T10:48:28.620Z,23.63
2022-09-16T10:51:02.555Z,23.76
2022-09-16T10:53:39.656Z,23.84
2022-09-16T10:56:22.873Z,23.71
2022-09-16T10:59:10.623Z,23.62
2022-09-16T11:01:51.147Z,23.40
2022-09-16T11:04:46.027Z,23.29
2022-09-16T11:07:33.383Z,23.27
2022-09-16T11:10:16.411Z,23.39
2022-09-16T11:13:16.208Z,23.59
2022-09-16T11:16:04.031Z,23.61
2022-09-16T11:18:57.122Z,23.56
2022-09-16T11:21:39.809Z,23.50
2022-09-16T11:24:23.040Z,23.39
2022-09-16T11:27:01.058Z,23.39
2022-09-16T11:29:53.789Z,23.48
2022-09-16T11:32:36.289Z,23.50
2022-09-16T11:35:27.476Z,23.63
2022-09-16T11:38:05.380Z,23.77
2022-09-16T11:40:52.050Z,23.76
2022-09-16T11:43:48.473Z,23.77
2022-09-16T11:46:27.418Z,24.00
2022-09-16T11:49:14.995Z,24.23
2022-09-16T11:52:02.303Z,24.46
2022-09-16T11:54:48.251Z,24.48
2022-09-16T11:57:22.226Z,24.54
2022-09-16T11:59:59.154Z,24.66
2022-09-16T12:02:37.282Z,24.78
2022-09-16T12:05:19.495Z,24.91
2022-09-16T12:07:56.859Z,25.21
2022-09-16T12:10:38.578Z,25.72
2022-09-16T12:13:17.031Z,26.03
2022-09-16T12:15:52.395Z,26.03
2022-09-16T12:18:28.340Z,25.95
2022-09-16T12:21:07.878Z,25.79
2022-09-16T12:23:44.727Z,25.57
2022-09-16T12:26:21.847Z,25.47
2022-09-16T12:29:00.859Z,25.36
2022-09-16T12:31:38.109Z,25.22
2022-09-16T12:34:15.641Z,24.94
2022-09-16T12:36:51.186Z,24.77
2022-09-16T12:39:25.059Z,24.69
2022-09-16T12:42:17.699Z,24.77
2022-09-16T12:45:07.211Z,24.80
2022-09-16T12:47:59.471Z,24.82
2022-09-16T12:51:01.721Z,24.83
2022-09-16T12:53:54.091Z,25.03
2022-09-16T12:56:40.527Z,25.61
2022-09-16T12:59:34.994Z,26.09
2022-09-16T13:02:17.351Z,26.34
2022-09-16T13:04:51.803Z,26.56
2022-09-16T13:07:28.668Z,26.63
2022-09-16T13:10:07.278Z,26.62
2022-09-16T13:12:43.950Z,26.36
2022-09-16T13:15:28.536Z,26.04
2022-09-16T13:18:11.959Z,25.78
2022-09-16T13:20:49.360Z,25.55
2022-09-16T13:23:24.941Z,25.24
2022-09-16T13:26:04.277Z,25.00
2022-09-16T13:28:41.499Z,24.80
2022-09-16T13:31:34.310Z,24.28
2022-09-16T13:34:19.200Z,23.63
2022-09-16T13:36:52.367Z,23.27
2022-09-16T13:39:36.085Z,23.06
2022-09-16T13:42:21.676Z,23.02
2022-09-16T13:44:56.039Z,22.87
2022-09-16T13:47:41.833Z,22.71
2022-09-16T13:50:18.258Z,22.44
2022-09-16T13:52:50.786Z,22.35
2022-09-16T13:55:25.783Z,22.36
2022-09-16T13:58:03.484Z,22.37
2022-09-16T14:00:42.341Z,22.50
2022-09-16T14:03:29.186Z,22.56
2022-09-16T14:06:23.124Z,22.55
2022-09-16T14:09:03.298Z,22.48
2022-09-16T14:11:39.973Z,22.48
2022-09-16T14:14:30.086Z,22.38
2022-09-16T14:17:17.585Z,22.19
2022-09-16T14:19:52.522Z,21.90
2022-09-16T14:22:27.669Z,21.42
2022-09-16T14:25:26.235Z,21.21
2022-09-16T14:28:07.403Z,21.17
2022-09-16T14:30:46.459Z,20.92
2022-09-16T14:33:21.567Z,20.84
2022-09-16T14:35:56.841Z,20.95
2022-09-16T14:38:45.664Z,20.89
2022-09-16T14:41:25.693Z,20.82
2022-09-16T14:44:05.576Z,20.90
2022-09-16T14:46:46.308Z,20.98
2022-09-16T14:49:20.749Z,21.08
2022-09-16T14:51:55.354Z,21.38
2022-09-16T14:54:29.414Z,21.76
2022-09-16T14:57:06.582Z,21.95
2022-09-16T14:59:42.869Z,22.36
2022-09-16T15:02:23.840Z,22.75
2022-09-16T15:05:03.086Z,23.26
2022-09-16T15:07:50.635Z,23.69
2022-09-16T15:10:39.710Z,23.64
2022-09-16T15:13:25.946Z,23.44
2022-09-16T15:16:04.656Z,23.34
2022-09-16T15:18:41.260Z,23.25
2022-09-16T15:21:21.172Z,23.20
2022-09-16T15:23:56.905Z,23.02
2022-09-16T15:26:33.189Z,22.93
2022-09-16T15:29:08.304Z,22.94
2022-09-16T15:31:44.973Z,22.98
2022-09-16T15:34:24.913Z,23.11
2022-09-16T15:36:59.101Z,23.28
2022-09-16T15:39:35.878Z,23.47
2022-09-16T15:42:15.730Z,23.80
2022-09-16T15:44:53.792Z,23.80
2022-09-16T15:47:30.105Z,23.64
2022-09-16T15:50:04.664Z,23.49
2022-09-16T15:52:52.858Z,23.36
2022-09-16T15:55:33.649Z,23.23
2022-09-16T15:58:12.055Z,23.08
2022-09-16T16:01:07.927Z,22.87
2022-09-16T16:03:50.413Z,22.70
2022-09-16T16:06:23.652Z,22.53
2022-09-16T16:08:58.197Z,22.38
2022-09-16T16:11:31.354Z,22.23
2022-09-16T16:14:06.118Z,22.10
2022-09-16T16:17:01.566Z,21.97
2022-09-16T16:20:23.241Z,21.83
2022-09-16T16:22:58.615Z,21.70
2022-09-16T16:25:38.128Z,21.58
2022-09-16T16:28:12.345Z,21.46
2022-09-16T16:30:52.096Z,21.37
2022-09-16T16:33:25.692Z,21.29
2022-09-16T16:36:23.508Z,21.14
2022-09-16T16:39:00.109Z,20.99
2022-09-16T16:41:37.629Z,20.91
2022-09-16T16:44:12.874Z,20.84
2022-09-16T16:46:50.597Z,20.79
2022-09-16T16:49:27.717Z,20.72
2022-09-16T16:55:10.464Z,20.57
2022-09-16T16:57:46.066Z,20.52
2022-09-16T17:04:02.475Z,20.45
2022-09-16T17:07:02.680Z,20.39
2022-09-16T17:09:51.121Z,20.30
2022-09-16T17:13:11.279Z,20.27
2022-09-16T17:15:49.987Z,20.21
2022-09-16T17:18:27.541Z,20.20
2022-09-16T17:21:11.522Z,20.20
2022-09-16T17:23:55.155Z,20.23
2022-09-16T17:26:29.694Z,20.19
2022-09-16T17:29:36.250Z,20.16
2022-09-16T17:32:19.012Z,20.13
2022-09-16T17:34:53.271Z,20.11
2022-09-16T17:37:25.619Z,20.10
2022-09-16T17:40:10.181Z,20.11
2022-09-16T17:42:48.103Z,20.08
2022-09-16T17:46:12.299Z,20.06
2022-09-16T17:49:14.760Z,20.00
2022-09-16T17:52:12.754Z,19.93
2022-09-16T17:54:48.112Z,19.85
2022-09-16T18:00:58.386Z,19.68
2022-09-16T18:03:46.181Z,19.58
2022-09-16T18:09:30.141Z,19.43
2022-09-16T18:12:16.097Z,19.40
2022-09-16T18:14:51.390Z,19.42
2022-09-16T18:17:29.925Z,19.43
2022-09-16T18:20:07.405Z,19.45
2022-09-16T18:22:46.440Z,19.44
2022-09-16T18:25:22.521Z,19.43
2022-09-16T18:28:00.773Z,19.42
2022-09-16T18:31:01.588Z,19.45
2022-09-16T18:33:43.542Z,19.43
2022-09-16T18:37:11.755Z,19.45
2022-09-16T18:39:49.242Z,19.43
2022-09-16T18:42:22.394Z,19.42
2022-09-16T18:44:57.172Z,19.37
2022-09-16T18:47:34.114Z,19.37
2022-09-16T18:50:10.221Z,19.34
2022-09-16T18:53:17.195Z,19.33
2022-09-16T18:55:52.092Z,19.35
2022-09-16T18:59:19.473Z,19.36
2022-09-16T19:01:56.185Z,19.38
2022-09-16T19:04:39.496Z,19.39
2022-09-16T19:07:19.472Z,19.38
2022-09-16T19:09:52.070Z,19.38
2022-09-16T19:12:39.274Z,19.39
2022-09-16T19:15:39.727Z,19.37
2022-09-16T19:18:15.242Z,19.36
2022-09-16T19:20:52.879Z,19.33
2022-09-16T19:23:27.885Z,19.30
2022-09-16T19:26:10.888Z,19.30
2022-09-16T19:32:06.926Z,19.24
2022-09-16T19:34:51.111Z,19.17
2022-09-16T19:38:12.350Z,19.12
2022-09-16T19:40:49.051Z,19.08
2022-09-16T19:43:26.542Z,19.03
2022-09-16T19:46:12.217Z,18.95
2022-09-16T19:48:49.331Z,18.92
2022-09-16T19:51:51.485Z,18.87
2022-09-16T19:54:37.179Z,18.86
2022-09-16T19:57:16.686Z,18.83
2022-09-16T20:03:16.509Z,18.75
2022-09-16T20:06:13.549Z,18.71
2022-09-16T20:08:50.321Z,18.68
2022-09-16T20:11:29.758Z,18.64
2022-09-16T20:14:34.465Z,18.61
2022-09-16T20:17:33.196Z,18.60
2022-09-16T20:20:08.731Z,18.60
2022-09-16T20:22:43.859Z,18.58
2022-09-16T20:25:49.451Z,18.56
2022-09-16T20:28:23.593Z,18.49
2022-09-16T20:31:24.712Z,18.44
2022-09-16T20:34:12.052Z,18.44
2022-09-16T20:37:11.551Z,18.38
2022-09-16T20:39:48.327Z,18.31
2022-09-16T20:42:47.050Z,18.24
2022-09-16T20:45:49.452Z,18.20
2022-09-16T20:48:28.831Z,18.11
2022-09-16T20:51:07.462Z,18.04
2022-09-16T20:53:45.236Z,18.03
2022-09-16T20:59:25.809Z,17.95
2022-09-16T21:02:02.934Z,17.92
2022-09-16T21:04:37.213Z,17.88
2022-09-16T21:07:09.998Z,17.85
2022-09-16T21:09:43.670Z,17.80
2022-09-16T21:13:07.558Z,17.69
2022-09-16T21:15:45.208Z,17.59
2022-09-16T21:19:10.575Z,17.52
2022-09-16T21:25:16.083Z,17.43
2022-09-16T21:28:37.638Z,17.37
2022-09-16T21:31:18.450Z,17.29
2022-09-16T21:33:58.941Z,17.22
2022-09-16T21:36:32.271Z,17.16
2022-09-16T21:39:28.817Z,17.11
2022-09-16T21:42:00.571Z,17.08
2022-09-16T21:44:35.035Z,17.03
2022-09-16T21:47:12.191Z,16.97
2022-09-16T21:49:44.271Z,16.91
2022-09-16T21:52:17.521Z,16.92
2022-09-16T21:54:49.648Z,16.91
2022-09-16T21:57:21.535Z,16.87
2022-09-16T21:59:55.503Z,16.79
2022-09-16T22:02:29.286Z,16.77
2022-09-16T22:05:02.556Z,16.72
2022-09-16T22:07:34.469Z,16.68
2022-09-16T22:10:07.684Z,16.71
2022-09-16T22:12:40.352Z,16.64
2022-09-16T22:15:13.482Z,16.62
2022-09-16T22:17:51.909Z,16.59
2022-09-16T22:20:25.410Z,16.56
2022-09-16T22:22:57.530Z,16.52
2022-09-16T22:25:29.479Z,16.48
2022-09-16T22:28:02.884Z,16.47
2022-09-16T22:30:36.728Z,16.47
2022-09-16T22:33:09.529Z,16.50
2022-09-16T22:35:42.296Z,16.45
2022-09-16T22:38:14.207Z,16.44
2022-09-16T22:40:48.723Z,16.43
2022-09-16T22:43:20.930Z,16.38
2022-09-16T22:45:52.900Z,16.35
2022-09-16T22:48:24.794Z,16.32
2022-09-16T22:51:02.650Z,16.37
2022-09-16T22:53:36.489Z,16.32
2022-09-16T22:56:12.187Z,16.29
2022-09-16T22:58:44.758Z,16.26
2022-09-16T23:01:20.034Z,16.26
2022-09-16T23:03:57.230Z,16.26
2022-09-16T23:06:32.814Z,16.25
2022-09-16T23:09:05.036Z,16.24
2022-09-16T23:11:38.581Z,16.24
2022-09-16T23:14:11.489Z,16.17
2022-09-16T23:16:43.584Z,16.10
2022-09-16T23:19:17.192Z,16.06
2022-09-16T23:21:51.205Z,16.06
2022-09-16T23:24:24.566Z,16.07
2022-09-16T23:26:57.062Z,16.05
2022-09-16T23:29:28.992Z,16.07
2022-09-16T23:32:03.963Z,16.12
2022-09-16T23:34:38.002Z,16.09
2022-09-16T23:37:10.364Z,16.08
2022-09-16T23:39:43.903Z,16.02
2022-09-16T23:42:17.013Z,16.00
2022-09-16T23:44:49.418Z,16.00
2022-09-16T23:47:23.386Z,15.99
2022-09-16T23:49:55.374Z,15.95
2022-09-16T23:52:27.304Z,15.95
2022-09-16T23:55:00.383Z,15.93
2022-09-16T23:57:38.076Z,15.91
